Terminal Aerodrome Forecast
Issued by NWS Oklahoma City, OK

Home | Current Version | Previous Version | Text Only | Print | Product List | Glossary On
Versions: 1 2 3 4 5 6 7 8 9 10 11 12 13 14 15 16 17 18 19 20 21 22 23 24 25 26 27 28 29 30
000
FTUS44 KOUN 061741
TAFOUN
TAF
KOUN 061741Z 0618/0718 18015G23KT P6SM BKN025
     FM062000 18015G23KT P6SM BKN035
     FM070100 17010KT P6SM FEW060 BKN250
     FM070500 VRB10KT 6SM -TSRA BR BKN015 BKN070CB
     FM070800 VRB06KT 5SM RA BR BKN015 OVC070
     FM071200 01010KT 5SM -RA BR OVC008=

USA.gov is the U.S. government's official web portal to all federal, state and local government web resources and services.